sensor_id;sensor_type;location;lat;lon;timestamp;P1;durP1;ratioP1;P2;durP2;ratioP2
40198;SDS011;25906;43.536;26.068;2024-03-06T00:02:25;16.75;;;8.45;;
40198;SDS011;25906;43.536;26.068;2024-03-06T00:05:12;21.05;;;8.45;;
40198;SDS011;25906;43.536;26.068;2024-03-06T00:07:57;16.85;;;8.18;;
40198;SDS011;25906;43.536;26.068;2024-03-06T00:10:42;21.20;;;9.40;;
40198;SDS011;25906;43.536;26.068;2024-03-06T00:13:30;18.77;;;8.93;;
40198;SDS011;25906;43.536;26.068;2024-03-06T00:16:16;16.23;;;8.55;;
40198;SDS011;25906;43.536;26.068;2024-03-06T00:19:01;20.25;;;8.77;;
40198;SDS011;25906;43.536;26.068;2024-03-06T00:21:47;23.27;;;8.70;;
40198;SDS011;25906;43.536;26.068;2024-03-06T00:24:32;21.33;;;8.00;;
40198;SDS011;25906;43.536;26.068;2024-03-06T00:27:18;23.85;;;7.45;;
40198;SDS011;25906;43.536;26.068;2024-03-06T00:30:04;12.75;;;6.57;;
40198;SDS011;25906;43.536;26.068;2024-03-06T00:35:35;16.67;;;7.00;;
40198;SDS011;25906;43.536;26.068;2024-03-06T00:38:20;24.60;;;6.95;;
40198;SDS011;25906;43.536;26.068;2024-03-06T00:41:06;19.95;;;7.13;;
40198;SDS011;25906;43.536;26.068;2024-03-06T00:43:51;16.00;;;7.03;;
40198;SDS011;25906;43.536;26.068;2024-03-06T00:46:37;13.48;;;7.00;;
40198;SDS011;25906;43.536;26.068;2024-03-06T00:49:23;13.48;;;7.63;;
40198;SDS011;25906;43.536;26.068;2024-03-06T00:52:09;20.98;;;9.35;;
40198;SDS011;25906;43.536;26.068;2024-03-06T00:54:54;20.00;;;8.43;;
40198;SDS011;25906;43.536;26.068;2024-03-06T00:57:41;25.35;;;8.80;;
40198;SDS011;25906;43.536;26.068;2024-03-06T01:00:26;24.98;;;10.68;;
40198;SDS011;25906;43.536;26.068;2024-03-06T01:05:58;18.40;;;9.15;;
40198;SDS011;25906;43.536;26.068;2024-03-06T01:08:43;18.17;;;8.57;;
40198;SDS011;25906;43.536;26.068;2024-03-06T01:11:29;21.45;;;8.63;;
40198;SDS011;25906;43.536;26.068;2024-03-06T01:14:14;21.02;;;7.70;;
40198;SDS011;25906;43.536;26.068;2024-03-06T01:17:00;22.00;;;7.32;;
40198;SDS011;25906;43.536;26.068;2024-03-06T01:19:45;18.67;;;6.93;;
40198;SDS011;25906;43.536;26.068;2024-03-06T01:22:30;18.25;;;7.03;;
40198;SDS011;25906;43.536;26.068;2024-03-06T01:25:16;11.75;;;6.38;;
40198;SDS011;25906;43.536;26.068;2024-03-06T01:28:02;17.45;;;6.18;;
40198;SDS011;25906;43.536;26.068;2024-03-06T01:30:47;11.65;;;6.72;;
40198;SDS011;25906;43.536;26.068;2024-03-06T01:33:33;13.25;;;5.80;;
40198;SDS011;25906;43.536;26.068;2024-03-06T01:36:18;15.90;;;5.63;;
40198;SDS011;25906;43.536;26.068;2024-03-06T01:39:03;15.50;;;6.07;;
40198;SDS011;25906;43.536;26.068;2024-03-06T01:41:50;17.67;;;5.80;;
40198;SDS011;25906;43.536;26.068;2024-03-06T01:44:35;13.43;;;6.57;;
40198;SDS011;25906;43.536;26.068;2024-03-06T01:47:21;13.90;;;6.47;;
40198;SDS011;25906;43.536;26.068;2024-03-06T01:50:06;12.80;;;6.50;;
40198;SDS011;25906;43.536;26.068;2024-03-06T01:52:54;18.00;;;6.38;;
40198;SDS011;25906;43.536;26.068;2024-03-06T01:55:39;17.50;;;6.93;;
40198;SDS011;25906;43.536;26.068;2024-03-06T02:01:11;20.65;;;7.88;;
40198;SDS011;25906;43.536;26.068;2024-03-06T02:03:57;17.65;;;7.22;;
40198;SDS011;25906;43.536;26.068;2024-03-06T02:06:45;14.57;;;6.75;;
40198;SDS011;25906;43.536;26.068;2024-03-06T02:09:31;20.17;;;7.30;;
40198;SDS011;25906;43.536;26.068;2024-03-06T02:12:17;24.42;;;7.10;;
40198;SDS011;25906;43.536;26.068;2024-03-06T02:15:03;22.58;;;8.88;;
40198;SDS011;25906;43.536;26.068;2024-03-06T02:17:49;19.17;;;7.80;;
40198;SDS011;25906;43.536;26.068;2024-03-06T02:20:37;16.65;;;7.45;;
40198;SDS011;25906;43.536;26.068;2024-03-06T02:23:25;19.20;;;7.22;;
40198;SDS011;25906;43.536;26.068;2024-03-06T02:26:10;20.73;;;7.30;;
40198;SDS011;25906;43.536;26.068;2024-03-06T02:28:55;18.10;;;7.15;;
40198;SDS011;25906;43.536;26.068;2024-03-06T02:31:41;15.35;;;7.60;;
40198;SDS011;25906;43.536;26.068;2024-03-06T02:34:27;17.13;;;7.82;;
40198;SDS011;25906;43.536;26.068;2024-03-06T02:37:12;23.00;;;8.77;;
40198;SDS011;25906;43.536;26.068;2024-03-06T02:39:57;24.90;;;8.70;;
40198;SDS011;25906;43.536;26.068;2024-03-06T02:42:44;23.85;;;9.90;;
40198;SDS011;25906;43.536;26.068;2024-03-06T02:45:29;23.77;;;9.02;;
40198;SDS011;25906;43.536;26.068;2024-03-06T02:48:15;20.77;;;9.02;;
40198;SDS011;25906;43.536;26.068;2024-03-06T02:51:01;22.33;;;8.82;;
40198;SDS011;25906;43.536;26.068;2024-03-06T02:53:47;19.70;;;8.90;;
40198;SDS011;25906;43.536;26.068;2024-03-06T02:56:34;18.00;;;8.85;;
40198;SDS011;25906;43.536;26.068;2024-03-06T02:59:19;29.13;;;9.15;;
40198;SDS011;25906;43.536;26.068;2024-03-06T03:02:05;21.35;;;8.98;;
40198;SDS011;25906;43.536;26.068;2024-03-06T03:04:51;24.13;;;9.25;;
40198;SDS011;25906;43.536;26.068;2024-03-06T03:07:39;21.83;;;10.05;;
40198;SDS011;25906;43.536;26.068;2024-03-06T03:10:24;18.25;;;9.48;;
40198;SDS011;25906;43.536;26.068;2024-03-06T03:13:10;19.45;;;9.10;;
40198;SDS011;25906;43.536;26.068;2024-03-06T03:15:55;20.98;;;9.63;;
40198;SDS011;25906;43.536;26.068;2024-03-06T03:18:41;23.55;;;9.88;;
40198;SDS011;25906;43.536;26.068;2024-03-06T03:21:26;28.70;;;10.10;;
40198;SDS011;25906;43.536;26.068;2024-03-06T03:24:12;18.75;;;9.75;;
40198;SDS011;25906;43.536;26.068;2024-03-06T03:26:58;21.70;;;9.57;;
40198;SDS011;25906;43.536;26.068;2024-03-06T03:29:43;27.00;;;10.45;;
40198;SDS011;25906;43.536;26.068;2024-03-06T03:32:28;24.02;;;11.07;;
40198;SDS011;25906;43.536;26.068;2024-03-06T03:35:14;28.27;;;12.00;;
40198;SDS011;25906;43.536;26.068;2024-03-06T03:37:59;25.20;;;11.93;;
40198;SDS011;25906;43.536;26.068;2024-03-06T03:40:45;29.45;;;12.10;;
40198;SDS011;25906;43.536;26.068;2024-03-06T03:43:30;28.23;;;12.13;;
40198;SDS011;25906;43.536;26.068;2024-03-06T03:46:17;24.23;;;11.25;;
40198;SDS011;25906;43.536;26.068;2024-03-06T03:49:03;24.40;;;11.77;;
40198;SDS011;25906;43.536;26.068;2024-03-06T03:51:48;27.98;;;11.75;;
40198;SDS011;25906;43.536;26.068;2024-03-06T03:54:34;23.65;;;11.27;;
40198;SDS011;25906;43.536;26.068;2024-03-06T03:57:20;24.60;;;11.82;;
40198;SDS011;25906;43.536;26.068;2024-03-06T04:00:05;23.90;;;12.25;;
40198;SDS011;25906;43.536;26.068;2024-03-06T04:02:55;28.40;;;11.27;;
40198;SDS011;25906;43.536;26.068;2024-03-06T04:05:41;26.45;;;11.30;;
40198;SDS011;25906;43.536;26.068;2024-03-06T04:08:26;25.67;;;12.07;;
40198;SDS011;25906;43.536;26.068;2024-03-06T04:11:12;23.50;;;10.70;;
40198;SDS011;25906;43.536;26.068;2024-03-06T04:13:57;32.33;;;12.70;;
40198;SDS011;25906;43.536;26.068;2024-03-06T04:16:43;30.17;;;12.80;;
40198;SDS011;25906;43.536;26.068;2024-03-06T04:19:28;27.65;;;11.38;;
40198;SDS011;25906;43.536;26.068;2024-03-06T04:22:14;24.83;;;11.88;;
40198;SDS011;25906;43.536;26.068;2024-03-06T04:25:00;22.27;;;11.40;;
40198;SDS011;25906;43.536;26.068;2024-03-06T04:27:46;23.02;;;10.15;;
40198;SDS011;25906;43.536;26.068;2024-03-06T04:30:32;19.73;;;10.57;;
40198;SDS011;25906;43.536;26.068;2024-03-06T04:33:17;26.17;;;10.35;;
40198;SDS011;25906;43.536;26.068;2024-03-06T04:36:03;22.75;;;11.70;;
40198;SDS011;25906;43.536;26.068;2024-03-06T04:38:50;21.23;;;10.38;;
40198;SDS011;25906;43.536;26.068;2024-03-06T04:41:36;21.92;;;9.73;;
40198;SDS011;25906;43.536;26.068;2024-03-06T04:44:21;21.38;;;10.30;;
40198;SDS011;25906;43.536;26.068;2024-03-06T04:47:07;24.05;;;10.60;;
40198;SDS011;25906;43.536;26.068;2024-03-06T04:49:52;24.55;;;10.13;;
40198;SDS011;25906;43.536;26.068;2024-03-06T04:52:38;17.92;;;9.27;;
40198;SDS011;25906;43.536;26.068;2024-03-06T04:55:23;19.88;;;10.27;;
40198;SDS011;25906;43.536;26.068;2024-03-06T04:58:10;24.35;;;10.73;;
40198;SDS011;25906;43.536;26.068;2024-03-06T05:00:55;21.02;;;10.68;;
40198;SDS011;25906;43.536;26.068;2024-03-06T05:03:41;24.42;;;9.82;;
40198;SDS011;25906;43.536;26.068;2024-03-06T05:06:26;20.20;;;10.80;;
40198;SDS011;25906;43.536;26.068;2024-03-06T05:09:11;16.55;;;9.98;;
40198;SDS011;25906;43.536;26.068;2024-03-06T05:11:58;20.75;;;9.15;;
40198;SDS011;25906;43.536;26.068;2024-03-06T05:14:43;19.38;;;9.32;;
40198;SDS011;25906;43.536;26.068;2024-03-06T05:17:29;18.40;;;9.98;;
40198;SDS011;25906;43.536;26.068;2024-03-06T05:20:14;21.25;;;9.25;;
40198;SDS011;25906;43.536;26.068;2024-03-06T05:23:00;25.02;;;9.85;;
40198;SDS011;25906;43.536;26.068;2024-03-06T05:25:45;22.17;;;9.75;;
40198;SDS011;25906;43.536;26.068;2024-03-06T05:28:31;26.80;;;9.75;;
40198;SDS011;25906;43.536;26.068;2024-03-06T05:31:17;19.83;;;10.27;;
40198;SDS011;25906;43.536;26.068;2024-03-06T05:34:04;18.52;;;10.73;;
40198;SDS011;25906;43.536;26.068;2024-03-06T05:36:50;21.38;;;10.98;;
40198;SDS011;25906;43.536;26.068;2024-03-06T05:39:36;25.55;;;11.57;;
40198;SDS011;25906;43.536;26.068;2024-03-06T05:42:22;24.25;;;11.27;;
40198;SDS011;25906;43.536;26.068;2024-03-06T05:45:08;25.92;;;12.55;;
40198;SDS011;25906;43.536;26.068;2024-03-06T05:47:57;32.28;;;13.20;;
40198;SDS011;25906;43.536;26.068;2024-03-06T05:50:42;28.42;;;12.77;;
40198;SDS011;25906;43.536;26.068;2024-03-06T05:53:29;26.05;;;12.88;;
40198;SDS011;25906;43.536;26.068;2024-03-06T05:56:16;29.75;;;12.13;;
40198;SDS011;25906;43.536;26.068;2024-03-06T05:59:03;30.50;;;12.88;;
40198;SDS011;25906;43.536;26.068;2024-03-06T06:01:49;29.30;;;13.55;;
40198;SDS011;25906;43.536;26.068;2024-03-06T06:04:35;30.63;;;13.30;;
40198;SDS011;25906;43.536;26.068;2024-03-06T06:07:20;30.23;;;13.07;;
40198;SDS011;25906;43.536;26.068;2024-03-06T06:10:06;28.58;;;13.88;;
40198;SDS011;25906;43.536;26.068;2024-03-06T06:12:54;29.27;;;14.32;;
40198;SDS011;25906;43.536;26.068;2024-03-06T06:15:40;25.98;;;13.02;;
40198;SDS011;25906;43.536;26.068;2024-03-06T06:18:26;25.38;;;13.40;;
40198;SDS011;25906;43.536;26.068;2024-03-06T06:21:11;32.42;;;14.38;;
40198;SDS011;25906;43.536;26.068;2024-03-06T06:23:57;28.58;;;13.93;;
40198;SDS011;25906;43.536;26.068;2024-03-06T06:26:42;34.30;;;14.63;;
40198;SDS011;25906;43.536;26.068;2024-03-06T06:29:28;35.50;;;14.98;;
40198;SDS011;25906;43.536;26.068;2024-03-06T06:48:10;36.05;;;17.00;;
40198;SDS011;25906;43.536;26.068;2024-03-06T06:50:56;36.90;;;16.23;;
40198;SDS011;25906;43.536;26.068;2024-03-06T06:53:41;39.38;;;15.15;;
40198;SDS011;25906;43.536;26.068;2024-03-06T06:56:27;32.72;;;15.05;;
40198;SDS011;25906;43.536;26.068;2024-03-06T06:59:12;31.23;;;15.55;;
40198;SDS011;25906;43.536;26.068;2024-03-06T07:04:43;33.63;;;15.43;;
40198;SDS011;25906;43.536;26.068;2024-03-06T07:07:29;41.25;;;17.38;;
40198;SDS011;25906;43.536;26.068;2024-03-06T07:10:14;36.90;;;16.00;;
40198;SDS011;25906;43.536;26.068;2024-03-06T07:13:02;39.08;;;17.00;;
40198;SDS011;25906;43.536;26.068;2024-03-06T07:15:51;37.97;;;15.15;;
40198;SDS011;25906;43.536;26.068;2024-03-06T07:18:36;31.23;;;14.30;;
40198;SDS011;25906;43.536;26.068;2024-03-06T07:21:22;32.50;;;14.48;;
40198;SDS011;25906;43.536;26.068;2024-03-06T07:24:07;28.50;;;14.30;;
40198;SDS011;25906;43.536;26.068;2024-03-06T07:26:53;34.55;;;14.57;;
40198;SDS011;25906;43.536;26.068;2024-03-06T07:29:38;31.02;;;14.80;;
40198;SDS011;25906;43.536;26.068;2024-03-06T07:32:24;36.13;;;13.82;;
40198;SDS011;25906;43.536;26.068;2024-03-06T07:35:10;27.30;;;13.70;;
40198;SDS011;25906;43.536;26.068;2024-03-06T07:37:57;26.40;;;14.02;;
40198;SDS011;25906;43.536;26.068;2024-03-06T07:40:42;33.30;;;13.98;;
40198;SDS011;25906;43.536;26.068;2024-03-06T07:43:28;35.75;;;13.75;;
40198;SDS011;25906;43.536;26.068;2024-03-06T07:46:13;30.38;;;13.55;;
40198;SDS011;25906;43.536;26.068;2024-03-06T07:48:59;33.20;;;14.43;;
40198;SDS011;25906;43.536;26.068;2024-03-06T07:51:44;26.23;;;13.68;;
40198;SDS011;25906;43.536;26.068;2024-03-06T07:54:30;29.55;;;14.18;;
40198;SDS011;25906;43.536;26.068;2024-03-06T07:57:15;30.23;;;13.82;;
40198;SDS011;25906;43.536;26.068;2024-03-06T08:00:01;33.20;;;13.68;;
40198;SDS011;25906;43.536;26.068;2024-03-06T08:02:53;34.88;;;13.02;;
40198;SDS011;25906;43.536;26.068;2024-03-06T08:05:39;36.90;;;14.00;;
40198;SDS011;25906;43.536;26.068;2024-03-06T08:08:24;38.05;;;13.98;;
40198;SDS011;25906;43.536;26.068;2024-03-06T08:11:10;26.75;;;13.13;;
40198;SDS011;25906;43.536;26.068;2024-03-06T08:13:59;28.00;;;13.90;;
40198;SDS011;25906;43.536;26.068;2024-03-06T08:16:45;28.45;;;12.32;;
40198;SDS011;25906;43.536;26.068;2024-03-06T08:22:19;28.70;;;13.15;;
40198;SDS011;25906;43.536;26.068;2024-03-06T08:27:52;27.02;;;14.18;;
40198;SDS011;25906;43.536;26.068;2024-03-06T08:30:37;26.95;;;12.48;;
40198;SDS011;25906;43.536;26.068;2024-03-06T08:33:23;29.10;;;12.73;;
40198;SDS011;25906;43.536;26.068;2024-03-06T08:36:09;31.27;;;12.48;;
40198;SDS011;25906;43.536;26.068;2024-03-06T08:38:55;27.90;;;13.07;;
40198;SDS011;25906;43.536;26.068;2024-03-06T08:41:40;36.63;;;16.77;;
40198;SDS011;25906;43.536;26.068;2024-03-06T08:44:27;30.50;;;13.90;;
40198;SDS011;25906;43.536;26.068;2024-03-06T08:49:58;28.77;;;12.88;;
40198;SDS011;25906;43.536;26.068;2024-03-06T08:52:44;32.65;;;13.50;;
40198;SDS011;25906;43.536;26.068;2024-03-06T08:55:30;28.70;;;12.18;;
40198;SDS011;25906;43.536;26.068;2024-03-06T08:58:17;31.60;;;12.05;;
40198;SDS011;25906;43.536;26.068;2024-03-06T09:01:05;24.23;;;11.80;;
40198;SDS011;25906;43.536;26.068;2024-03-06T09:03:51;22.80;;;12.15;;
40198;SDS011;25906;43.536;26.068;2024-03-06T09:06:36;27.35;;;13.25;;
40198;SDS011;25906;43.536;26.068;2024-03-06T09:09:22;28.40;;;13.23;;
40198;SDS011;25906;43.536;26.068;2024-03-06T09:12:08;29.65;;;13.23;;
40198;SDS011;25906;43.536;26.068;2024-03-06T09:15:00;28.08;;;12.73;;
40198;SDS011;25906;43.536;26.068;2024-03-06T09:17:46;36.22;;;13.70;;
40198;SDS011;25906;43.536;26.068;2024-03-06T09:23:17;29.38;;;13.40;;
40198;SDS011;25906;43.536;26.068;2024-03-06T09:26:03;30.17;;;13.98;;
40198;SDS011;25906;43.536;26.068;2024-03-06T09:28:48;25.52;;;12.82;;
40198;SDS011;25906;43.536;26.068;2024-03-06T09:31:34;23.73;;;12.63;;
40198;SDS011;25906;43.536;26.068;2024-03-06T09:34:19;22.27;;;12.05;;
40198;SDS011;25906;43.536;26.068;2024-03-06T09:37:06;23.70;;;12.52;;
40198;SDS011;25906;43.536;26.068;2024-03-06T09:39:52;29.90;;;12.05;;
40198;SDS011;25906;43.536;26.068;2024-03-06T09:42:37;30.23;;;12.23;;
40198;SDS011;25906;43.536;26.068;2024-03-06T09:45:23;35.30;;;12.95;;
40198;SDS011;25906;43.536;26.068;2024-03-06T09:48:08;26.48;;;13.25;;
40198;SDS011;25906;43.536;26.068;2024-03-06T09:50:54;23.67;;;12.60;;
40198;SDS011;25906;43.536;26.068;2024-03-06T09:53:45;23.90;;;11.63;;
40198;SDS011;25906;43.536;26.068;2024-03-06T09:56:34;27.83;;;12.48;;
40198;SDS011;25906;43.536;26.068;2024-03-06T09:59:19;29.55;;;12.27;;
40198;SDS011;25906;43.536;26.068;2024-03-06T10:02:05;21.65;;;11.45;;
40198;SDS011;25906;43.536;26.068;2024-03-06T10:05:20;21.83;;;11.13;;
40198;SDS011;25906;43.536;26.068;2024-03-06T10:08:09;22.98;;;12.43;;
40198;SDS011;25906;43.536;26.068;2024-03-06T10:10:54;21.80;;;11.77;;
40198;SDS011;25906;43.536;26.068;2024-03-06T10:13:41;25.98;;;12.05;;
40198;SDS011;25906;43.536;26.068;2024-03-06T10:16:27;24.25;;;11.13;;
40198;SDS011;25906;43.536;26.068;2024-03-06T10:19:18;27.20;;;11.13;;
40198;SDS011;25906;43.536;26.068;2024-03-06T10:22:06;28.42;;;11.15;;
40198;SDS011;25906;43.536;26.068;2024-03-06T10:24:56;24.17;;;12.18;;
40198;SDS011;25906;43.536;26.068;2024-03-06T10:27:42;25.30;;;11.52;;
40198;SDS011;25906;43.536;26.068;2024-03-06T10:30:27;19.83;;;9.45;;
40198;SDS011;25906;43.536;26.068;2024-03-06T10:33:13;24.23;;;11.18;;
40198;SDS011;25906;43.536;26.068;2024-03-06T10:35:59;25.88;;;11.55;;
40198;SDS011;25906;43.536;26.068;2024-03-06T10:38:45;26.60;;;11.70;;
40198;SDS011;25906;43.536;26.068;2024-03-06T10:41:34;24.27;;;13.15;;
40198;SDS011;25906;43.536;26.068;2024-03-06T10:44:29;19.92;;;11.07;;
40198;SDS011;25906;43.536;26.068;2024-03-06T10:47:19;24.20;;;11.30;;
40198;SDS011;25906;43.536;26.068;2024-03-06T10:50:05;21.73;;;11.68;;
40198;SDS011;25906;43.536;26.068;2024-03-06T10:52:55;23.40;;;12.02;;
40198;SDS011;25906;43.536;26.068;2024-03-06T10:55:44;24.95;;;12.30;;
40198;SDS011;25906;43.536;26.068;2024-03-06T10:58:30;22.42;;;11.68;;
40198;SDS011;25906;43.536;26.068;2024-03-06T11:01:18;24.50;;;12.52;;
40198;SDS011;25906;43.536;26.068;2024-03-06T11:04:05;22.98;;;11.68;;
40198;SDS011;25906;43.536;26.068;2024-03-06T11:06:50;27.00;;;13.40;;
40198;SDS011;25906;43.536;26.068;2024-03-06T11:09:36;27.60;;;12.73;;
40198;SDS011;25906;43.536;26.068;2024-03-06T11:12:32;26.67;;;12.48;;
40198;SDS011;25906;43.536;26.068;2024-03-06T11:15:22;23.52;;;11.25;;
40198;SDS011;25906;43.536;26.068;2024-03-06T11:24:15;24.13;;;11.00;;
40198;SDS011;25906;43.536;26.068;2024-03-06T11:27:01;32.70;;;11.52;;
40198;SDS011;25906;43.536;26.068;2024-03-06T11:32:59;23.42;;;11.68;;
40198;SDS011;25906;43.536;26.068;2024-03-06T11:39:06;27.08;;;12.52;;
40198;SDS011;25906;43.536;26.068;2024-03-06T11:41:52;28.83;;;12.90;;
40198;SDS011;25906;43.536;26.068;2024-03-06T11:44:46;22.58;;;11.45;;
40198;SDS011;25906;43.536;26.068;2024-03-06T11:50:44;25.67;;;11.95;;
40198;SDS011;25906;43.536;26.068;2024-03-06T11:53:30;21.33;;;10.95;;
40198;SDS011;25906;43.536;26.068;2024-03-06T11:56:17;23.25;;;11.65;;
40198;SDS011;25906;43.536;26.068;2024-03-06T11:59:04;35.50;;;11.50;;
40198;SDS011;25906;43.536;26.068;2024-03-06T12:01:52;29.50;;;12.68;;
40198;SDS011;25906;43.536;26.068;2024-03-06T12:04:38;22.77;;;10.90;;
40198;SDS011;25906;43.536;26.068;2024-03-06T12:07:25;23.17;;;11.50;;
40198;SDS011;25906;43.536;26.068;2024-03-06T12:10:11;23.23;;;10.18;;
40198;SDS011;25906;43.536;26.068;2024-03-06T12:12:56;20.05;;;10.30;;
40198;SDS011;25906;43.536;26.068;2024-03-06T12:15:42;22.08;;;10.75;;
40198;SDS011;25906;43.536;26.068;2024-03-06T12:18:29;22.65;;;11.80;;
40198;SDS011;25906;43.536;26.068;2024-03-06T12:26:57;20.80;;;9.63;;
40198;SDS011;25906;43.536;26.068;2024-03-06T12:29:44;23.05;;;10.10;;
40198;SDS011;25906;43.536;26.068;2024-03-06T12:32:31;19.73;;;9.73;;
40198;SDS011;25906;43.536;26.068;2024-03-06T12:35:23;18.65;;;9.93;;
40198;SDS011;25906;43.536;26.068;2024-03-06T12:38:13;19.50;;;9.77;;
40198;SDS011;25906;43.536;26.068;2024-03-06T12:40:59;22.35;;;10.90;;
40198;SDS011;25906;43.536;26.068;2024-03-06T12:43:45;26.20;;;10.32;;
40198;SDS011;25906;43.536;26.068;2024-03-06T12:46:30;22.95;;;11.27;;
40198;SDS011;25906;43.536;26.068;2024-03-06T12:49:16;20.50;;;10.20;;
40198;SDS011;25906;43.536;26.068;2024-03-06T12:52:03;19.00;;;9.73;;
40198;SDS011;25906;43.536;26.068;2024-03-06T12:54:50;19.73;;;10.00;;
40198;SDS011;25906;43.536;26.068;2024-03-06T12:57:35;31.63;;;11.73;;
40198;SDS011;25906;43.536;26.068;2024-03-06T13:00:21;19.77;;;8.93;;
40198;SDS011;25906;43.536;26.068;2024-03-06T13:03:06;23.27;;;11.30;;
40198;SDS011;25906;43.536;26.068;2024-03-06T13:05:52;21.05;;;10.68;;
40198;SDS011;25906;43.536;26.068;2024-03-06T13:08:38;21.10;;;9.48;;
40198;SDS011;25906;43.536;26.068;2024-03-06T13:11:24;22.73;;;11.30;;
40198;SDS011;25906;43.536;26.068;2024-03-06T13:14:09;20.63;;;11.13;;
40198;SDS011;25906;43.536;26.068;2024-03-06T13:16:56;24.55;;;9.80;;
40198;SDS011;25906;43.536;26.068;2024-03-06T13:19:42;26.58;;;10.15;;
40198;SDS011;25906;43.536;26.068;2024-03-06T13:22:28;21.33;;;10.00;;
40198;SDS011;25906;43.536;26.068;2024-03-06T13:25:13;24.25;;;10.30;;
40198;SDS011;25906;43.536;26.068;2024-03-06T13:27:58;20.92;;;9.73;;
40198;SDS011;25906;43.536;26.068;2024-03-06T13:30:44;19.80;;;9.63;;
40198;SDS011;25906;43.536;26.068;2024-03-06T13:33:29;22.58;;;10.02;;
40198;SDS011;25906;43.536;26.068;2024-03-06T13:36:15;24.65;;;10.57;;
40198;SDS011;25906;43.536;26.068;2024-03-06T13:39:00;26.92;;;10.40;;
40198;SDS011;25906;43.536;26.068;2024-03-06T13:41:45;21.80;;;10.32;;
40198;SDS011;25906;43.536;26.068;2024-03-06T13:44:31;22.65;;;10.60;;
40198;SDS011;25906;43.536;26.068;2024-03-06T13:47:16;24.30;;;10.73;;
40198;SDS011;25906;43.536;26.068;2024-03-06T13:50:02;20.83;;;10.27;;
40198;SDS011;25906;43.536;26.068;2024-03-06T13:52:48;20.95;;;11.55;;
40198;SDS011;25906;43.536;26.068;2024-03-06T13:55:33;25.17;;;10.80;;
40198;SDS011;25906;43.536;26.068;2024-03-06T13:58:19;25.02;;;10.88;;
40198;SDS011;25906;43.536;26.068;2024-03-06T14:01:05;21.17;;;10.95;;
40198;SDS011;25906;43.536;26.068;2024-03-06T14:03:50;23.95;;;9.75;;
40198;SDS011;25906;43.536;26.068;2024-03-06T14:06:36;21.52;;;9.52;;
40198;SDS011;25906;43.536;26.068;2024-03-06T14:09:21;19.10;;;9.32;;
40198;SDS011;25906;43.536;26.068;2024-03-06T14:12:08;24.38;;;10.45;;
40198;SDS011;25906;43.536;26.068;2024-03-06T14:14:54;15.65;;;8.90;;
40198;SDS011;25906;43.536;26.068;2024-03-06T14:17:40;25.42;;;11.52;;
40198;SDS011;25906;43.536;26.068;2024-03-06T14:20:25;20.52;;;11.07;;
40198;SDS011;25906;43.536;26.068;2024-03-06T14:23:11;18.67;;;9.23;;
40198;SDS011;25906;43.536;26.068;2024-03-06T14:25:57;17.10;;;9.18;;
40198;SDS011;25906;43.536;26.068;2024-03-06T14:28:43;16.70;;;8.85;;
40198;SDS011;25906;43.536;26.068;2024-03-06T14:31:28;17.67;;;9.13;;
40198;SDS011;25906;43.536;26.068;2024-03-06T14:34:14;19.23;;;8.80;;
40198;SDS011;25906;43.536;26.068;2024-03-06T14:36:59;20.15;;;9.57;;
40198;SDS011;25906;43.536;26.068;2024-03-06T14:39:45;22.15;;;9.43;;
40198;SDS011;25906;43.536;26.068;2024-03-06T14:42:30;21.52;;;9.45;;
40198;SDS011;25906;43.536;26.068;2024-03-06T14:45:17;19.92;;;9.15;;
40198;SDS011;25906;43.536;26.068;2024-03-06T14:48:02;14.52;;;8.63;;
40198;SDS011;25906;43.536;26.068;2024-03-06T14:50:48;16.30;;;8.27;;
40198;SDS011;25906;43.536;26.068;2024-03-06T14:53:33;19.58;;;9.27;;
40198;SDS011;25906;43.536;26.068;2024-03-06T14:56:19;22.17;;;8.65;;
40198;SDS011;25906;43.536;26.068;2024-03-06T14:59:06;17.20;;;8.10;;
40198;SDS011;25906;43.536;26.068;2024-03-06T15:01:52;18.83;;;9.50;;
40198;SDS011;25906;43.536;26.068;2024-03-06T15:04:37;17.70;;;8.98;;
40198;SDS011;25906;43.536;26.068;2024-03-06T15:07:23;15.40;;;8.50;;
40198;SDS011;25906;43.536;26.068;2024-03-06T15:10:08;20.45;;;9.23;;
40198;SDS011;25906;43.536;26.068;2024-03-06T15:12:54;20.63;;;8.60;;
40198;SDS011;25906;43.536;26.068;2024-03-06T15:15:40;18.25;;;8.30;;
40198;SDS011;25906;43.536;26.068;2024-03-06T15:18:26;24.60;;;9.30;;
40198;SDS011;25906;43.536;26.068;2024-03-06T15:21:11;15.27;;;8.30;;
40198;SDS011;25906;43.536;26.068;2024-03-06T15:23:57;21.17;;;9.48;;
40198;SDS011;25906;43.536;26.068;2024-03-06T15:26:42;17.05;;;8.73;;
40198;SDS011;25906;43.536;26.068;2024-03-06T15:29:28;19.33;;;9.60;;
40198;SDS011;25906;43.536;26.068;2024-03-06T15:32:13;14.15;;;6.50;;
40198;SDS011;25906;43.536;26.068;2024-03-06T15:34:59;17.30;;;9.60;;
40198;SDS011;25906;43.536;26.068;2024-03-06T15:37:44;18.42;;;9.80;;
40198;SDS011;25906;43.536;26.068;2024-03-06T15:40:30;20.23;;;10.48;;
40198;SDS011;25906;43.536;26.068;2024-03-06T15:43:16;17.80;;;9.30;;
40198;SDS011;25906;43.536;26.068;2024-03-06T15:46:02;19.52;;;9.30;;
40198;SDS011;25906;43.536;26.068;2024-03-06T15:48:48;21.77;;;9.48;;
40198;SDS011;25906;43.536;26.068;2024-03-06T15:51:34;19.50;;;9.55;;
40198;SDS011;25906;43.536;26.068;2024-03-06T15:54:22;20.52;;;8.50;;
40198;SDS011;25906;43.536;26.068;2024-03-06T15:57:08;23.60;;;8.73;;
40198;SDS011;25906;43.536;26.068;2024-03-06T15:59:53;17.65;;;8.75;;
40198;SDS011;25906;43.536;26.068;2024-03-06T16:02:39;19.90;;;9.13;;
40198;SDS011;25906;43.536;26.068;2024-03-06T16:05:25;24.75;;;9.77;;
40198;SDS011;25906;43.536;26.068;2024-03-06T16:08:11;24.40;;;9.68;;
40198;SDS011;25906;43.536;26.068;2024-03-06T16:10:57;22.77;;;10.70;;
40198;SDS011;25906;43.536;26.068;2024-03-06T16:13:43;18.70;;;9.80;;
40198;SDS011;25906;43.536;26.068;2024-03-06T16:16:29;18.38;;;10.02;;
40198;SDS011;25906;43.536;26.068;2024-03-06T16:19:14;26.33;;;10.80;;
40198;SDS011;25906;43.536;26.068;2024-03-06T16:22:03;21.25;;;9.85;;
40198;SDS011;25906;43.536;26.068;2024-03-06T16:24:50;23.35;;;12.48;;
40198;SDS011;25906;43.536;26.068;2024-03-06T16:27:36;20.75;;;10.25;;
40198;SDS011;25906;43.536;26.068;2024-03-06T16:30:22;18.42;;;10.75;;
40198;SDS011;25906;43.536;26.068;2024-03-06T16:35:53;24.55;;;10.13;;
40198;SDS011;25906;43.536;26.068;2024-03-06T16:38:39;21.02;;;9.80;;
40198;SDS011;25906;43.536;26.068;2024-03-06T16:41:24;20.90;;;10.77;;
40198;SDS011;25906;43.536;26.068;2024-03-06T16:44:10;21.80;;;10.85;;
40198;SDS011;25906;43.536;26.068;2024-03-06T16:46:58;22.95;;;10.52;;
40198;SDS011;25906;43.536;26.068;2024-03-06T16:49:43;23.10;;;11.50;;
40198;SDS011;25906;43.536;26.068;2024-03-06T16:52:29;24.95;;;11.57;;
40198;SDS011;25906;43.536;26.068;2024-03-06T16:55:14;26.13;;;11.05;;
40198;SDS011;25906;43.536;26.068;2024-03-06T16:58:00;21.42;;;10.90;;
40198;SDS011;25906;43.536;26.068;2024-03-06T17:00:46;28.58;;;11.70;;
40198;SDS011;25906;43.536;26.068;2024-03-06T17:03:31;24.35;;;11.55;;
40198;SDS011;25906;43.536;26.068;2024-03-06T17:06:17;21.08;;;11.55;;